createdAt,value
2023-07-24T00:00:26.418Z,10.000
2023-07-24T00:01:27.472Z,7.800
2023-07-24T00:02:30.966Z,8.700
2023-07-24T00:03:26.958Z,8.200
2023-07-24T00:04:20.886Z,7.050
2023-07-24T00:05:30.623Z,7.900
2023-07-24T00:06:28.778Z,10.700
2023-07-24T00:07:23.653Z,9.800
2023-07-24T00:08:33.178Z,8.700
2023-07-24T00:09:26.987Z,8.600
2023-07-24T00:10:24.803Z,10.400
2023-07-24T00:11:21.881Z,9.350
2023-07-24T00:12:31.661Z,9.100
2023-07-24T00:13:22.276Z,7.050
2023-07-24T00:14:23.749Z,8.700
2023-07-24T00:15:34.176Z,7.800
2023-07-24T00:16:29.000Z,8.800
2023-07-24T00:17:24.811Z,7.200
2023-07-24T00:18:20.868Z,8.050
2023-07-24T00:19:30.914Z,8.400
2023-07-24T00:20:25.838Z,6.950
2023-07-24T00:21:22.744Z,7.100
2023-07-24T00:22:32.903Z,7.400
2023-07-24T00:23:34.383Z,8.500
2023-07-24T00:24:31.201Z,9.900
2023-07-24T00:25:23.476Z,8.850
2023-07-24T00:26:33.128Z,7.450
2023-07-24T00:27:28.453Z,7.300
2023-07-24T00:28:23.657Z,8.000
2023-07-24T00:29:33.926Z,9.650
2023-07-24T00:30:28.917Z,7.600
2023-07-24T00:31:24.246Z,7.500
2023-07-24T00:32:24.644Z,7.350
2023-07-24T00:33:20.906Z,8.050
2023-07-24T00:34:29.848Z,8.500
2023-07-24T00:35:23.130Z,8.000
2023-07-24T00:36:33.933Z,7.900
2023-07-24T00:37:28.939Z,7.000
2023-07-24T00:38:26.112Z,7.900
2023-07-24T00:39:21.206Z,7.900
2023-07-24T00:40:23.152Z,7.600
2023-07-24T00:41:28.416Z,9.350
2023-07-24T00:42:21.618Z,8.100
2023-07-24T00:43:33.828Z,8.550
2023-07-24T00:44:28.732Z,8.100
2023-07-24T00:45:30.056Z,7.900
2023-07-24T00:46:21.055Z,7.100
2023-07-24T00:47:24.641Z,8.200
2023-07-24T00:48:23.465Z,7.050
2023-07-24T00:49:22.932Z,7.950
2023-07-24T00:50:32.590Z,7.600
2023-07-24T00:51:31.837Z,7.500
2023-07-24T00:52:24.827Z,7.500
2023-07-24T00:53:22.859Z,7.000
2023-07-24T00:54:34.245Z,7.150
2023-07-24T00:55:22.661Z,6.500
2023-07-24T00:56:25.526Z,7.000
2023-07-24T00:57:37.686Z,6.350
2023-07-24T00:58:30.218Z,7.200
2023-07-24T00:59:24.709Z,7.800
2023-07-24T01:00:25.610Z,8.950
2023-07-24T01:08:13.289Z,7.850
2023-07-24T01:08:44.766Z,9.000
2023-07-24T01:09:44.101Z,9.400
2023-07-24T01:10:38.513Z,8.200
2023-07-24T01:11:27.708Z,7.600
2023-07-24T01:12:31.962Z,9.600
2023-07-24T01:13:27.167Z,9.150
2023-07-24T01:14:21.040Z,7.700
2023-07-24T01:19:36.906Z,9.200
2023-07-24T01:20:27.272Z,7.900
2023-07-24T01:21:21.075Z,8.400
2023-07-24T01:22:39.404Z,10.800
2023-07-24T01:23:45.122Z,8.500
2023-07-24T01:24:27.007Z,10.200
2023-07-24T01:25:26.210Z,11.150
2023-07-24T01:26:21.149Z,10.700
2023-07-24T01:27:25.157Z,11.100
2023-07-24T01:28:20.898Z,9.350
2023-07-24T01:29:20.035Z,9.600
2023-07-24T01:30:30.936Z,10.750
2023-07-24T01:31:24.534Z,11.400
2023-07-24T01:32:32.956Z,9.700
2023-07-24T01:33:21.589Z,9.150
2023-07-24T01:34:25.248Z,9.400
2023-07-24T01:35:21.379Z,8.900
2023-07-24T01:36:24.590Z,9.000
2023-07-24T01:37:29.076Z,9.450
2023-07-24T01:38:24.920Z,10.900
2023-07-24T01:39:38.554Z,9.200
2023-07-24T01:40:30.350Z,9.900
2023-07-24T01:41:24.833Z,7.450
2023-07-24T01:42:21.128Z,8.050
2023-07-24T01:43:31.447Z,9.200
2023-07-24T01:44:28.532Z,8.400
2023-07-24T01:45:23.291Z,9.450
2023-07-24T01:46:33.664Z,10.600
2023-07-24T01:47:34.951Z,9.400
2023-07-24T01:48:25.907Z,10.700
2023-07-24T01:49:23.237Z,9.150
2023-07-24T01:50:32.102Z,9.400
2023-07-24T01:51:26.880Z,8.350
2023-07-24T01:52:24.358Z,8.800
2023-07-24T01:53:33.584Z,8.900
2023-07-24T01:54:28.866Z,10.100
2023-07-24T01:55:29.470Z,8.500
2023-07-24T01:56:23.013Z,7.750
2023-07-24T01:57:32.022Z,6.100
2023-07-24T01:58:26.848Z,9.000
2023-07-24T01:59:25.465Z,7.600
2023-07-24T02:00:35.511Z,8.850
2023-07-24T02:01:42.795Z,8.400
2023-07-24T02:02:24.839Z,9.100
2023-07-24T02:03:20.873Z,8.700
2023-07-24T02:04:23.339Z,11.900
2023-07-24T02:05:29.653Z,10.000
2023-07-24T02:06:24.871Z,12.200
2023-07-24T02:07:34.811Z,8.650
2023-07-24T02:08:29.597Z,10.900
2023-07-24T02:09:25.318Z,9.550
2023-07-24T02:10:20.965Z,9.200
2023-07-24T02:11:24.011Z,9.950
2023-07-24T02:12:27.159Z,7.700
2023-07-24T02:13:22.732Z,8.650
2023-07-24T02:14:33.095Z,9.600
2023-07-24T02:15:31.635Z,9.050
2023-07-24T02:16:19.928Z,9.800
2023-07-24T02:17:22.675Z,10.350
2023-07-24T02:18:33.799Z,8.800
2023-07-24T02:19:21.613Z,10.500
2023-07-24T02:20:19.559Z,9.100
2023-07-24T02:21:34.190Z,9.350
2023-07-24T02:22:38.269Z,8.700
2023-07-24T02:23:26.415Z,9.500
2023-07-24T02:24:21.655Z,11.350
2023-07-24T02:25:31.838Z,8.900
2023-07-24T02:26:32.254Z,11.900
2023-07-24T02:27:23.155Z,7.500
2023-07-24T02:28:33.748Z,10.100
2023-07-24T02:29:29.735Z,8.500
2023-07-24T02:30:26.064Z,11.000
2023-07-24T02:31:21.802Z,8.600
2023-07-24T02:32:30.692Z,9.400
2023-07-24T02:33:31.256Z,8.750
2023-07-24T02:34:23.427Z,9.900
2023-07-24T02:35:34.455Z,9.300
2023-07-24T02:36:30.097Z,7.300
2023-07-24T02:37:22.696Z,6.850
2023-07-24T02:38:21.051Z,7.650
2023-07-24T02:39:30.922Z,6.600
2023-07-24T02:40:27.962Z,7.600
2023-07-24T02:41:26.134Z,8.200
2023-07-24T02:42:35.077Z,9.200
2023-07-24T02:43:33.371Z,8.900
2023-07-24T02:44:24.868Z,8.150
2023-07-24T02:45:22.432Z,8.100
2023-07-24T02:46:32.787Z,8.050
2023-07-24T02:47:29.402Z,10.400
2023-07-24T02:48:22.839Z,9.050
2023-07-24T02:49:25.757Z,10.200
2023-07-24T02:50:29.219Z,9.300
2023-07-24T02:51:26.013Z,8.200
2023-07-24T02:52:20.974Z,10.150
2023-07-24T02:53:31.181Z,9.500
2023-07-24T02:54:25.208Z,9.550
2023-07-24T02:55:22.880Z,8.750
2023-07-24T02:56:26.890Z,8.800
2023-07-24T02:57:21.567Z,7.100
2023-07-24T02:58:27.140Z,8.950
2023-07-24T02:59:20.821Z,9.700
2023-07-24T03:00:33.024Z,8.400
2023-07-24T03:01:27.141Z,8.200
2023-07-24T03:02:24.309Z,8.300
2023-07-24T03:03:20.437Z,8.450
2023-07-24T03:04:23.798Z,10.200
2023-07-24T03:05:21.408Z,8.050
2023-07-24T03:06:20.686Z,8.450
2023-07-24T03:07:30.913Z,8.050
2023-07-24T03:08:29.387Z,6.700
2023-07-24T03:09:23.127Z,8.600
2023-07-24T03:10:22.946Z,10.000
2023-07-24T03:11:31.919Z,9.650
2023-07-24T03:12:20.986Z,8.300
2023-07-24T03:13:22.989Z,9.800
2023-07-24T03:14:31.947Z,9.100
2023-07-24T03:15:27.007Z,8.350
2023-07-24T03:16:23.079Z,7.700
2023-07-24T03:17:27.347Z,9.150
2023-07-24T03:18:33.669Z,9.150
2023-07-24T03:19:24.989Z,6.200
2023-07-24T03:20:22.602Z,7.000
2023-07-24T03:21:32.707Z,8.700
2023-07-24T03:22:22.119Z,8.350
2023-07-24T03:23:25.109Z,8.200
2023-07-24T03:24:29.131Z,8.250
2023-07-24T03:25:35.645Z,9.100
2023-07-24T03:26:24.949Z,7.750
2023-07-24T03:27:21.705Z,8.100
2023-07-24T03:28:25.362Z,7.900
2023-07-24T03:29:28.954Z,9.400
2023-07-24T03:30:24.562Z,9.200
2023-07-24T03:31:35.568Z,9.750
2023-07-24T03:32:30.427Z,9.800
2023-07-24T03:33:19.286Z,8.850
2023-07-24T03:34:21.210Z,9.250
2023-07-24T03:35:26.498Z,10.100
2023-07-24T03:36:28.231Z,11.700
2023-07-24T03:37:23.137Z,9.300
2023-07-24T03:38:33.134Z,7.800
2023-07-24T03:39:27.471Z,8.700
2023-07-24T03:40:25.588Z,8.250
2023-07-24T03:41:22.900Z,7.500
2023-07-24T03:42:22.741Z,8.600
2023-07-24T03:43:26.704Z,8.100
2023-07-24T03:44:22.875Z,9.300
2023-07-24T03:45:33.168Z,11.400
2023-07-24T03:46:27.088Z,10.150
2023-07-24T03:47:24.785Z,9.550
2023-07-24T03:48:22.173Z,9.800
2023-07-24T03:49:26.630Z,11.100
2023-07-24T03:50:23.273Z,9.600
2023-07-24T03:51:22.744Z,11.450
2023-07-24T03:52:33.013Z,10.000
2023-07-24T03:53:29.032Z,9.350
2023-07-24T03:54:26.851Z,8.900
2023-07-24T03:55:23.541Z,9.450
2023-07-24T03:56:31.292Z,10.400
2023-07-24T03:57:24.000Z,8.800
2023-07-24T03:58:23.148Z,8.700
2023-07-24T03:59:33.039Z,11.100
2023-07-24T04:00:32.049Z,9.050
2023-07-24T04:01:25.188Z,9.200
2023-07-24T04:02:22.338Z,8.700
2023-07-24T04:03:32.376Z,11.100
2023-07-24T04:04:28.564Z,8.300
2023-07-24T04:05:23.043Z,10.600
2023-07-24T04:06:34.645Z,10.200
2023-07-24T04:07:25.604Z,9.650
2023-07-24T04:08:21.943Z,10.000
2023-07-24T04:09:21.323Z,8.600
2023-07-24T04:10:30.874Z,9.200
2023-07-24T04:11:32.178Z,9.450
2023-07-24T04:12:25.103Z,8.900
2023-07-24T04:13:32.642Z,9.400
2023-07-24T04:14:30.001Z,7.700
2023-07-24T04:15:24.918Z,8.500
2023-07-24T04:16:21.148Z,7.150
2023-07-24T04:17:31.685Z,9.400
2023-07-24T04:18:21.801Z,9.050
2023-07-24T04:19:23.178Z,7.250
2023-07-24T04:20:24.384Z,8.250
2023-07-24T04:21:32.283Z,8.700
2023-07-24T04:22:26.475Z,9.300
2023-07-24T04:23:21.578Z,8.200
2023-07-24T04:24:27.377Z,9.100
2023-07-24T04:25:29.579Z,9.700
2023-07-24T04:26:24.135Z,9.500
2023-07-24T04:27:28.622Z,9.700
2023-07-24T04:28:19.898Z,10.000
2023-07-24T04:29:24.932Z,10.600
2023-07-24T04:30:21.003Z,9.950
2023-07-24T04:31:31.902Z,8.150
2023-07-24T04:32:31.852Z,8.700
2023-07-24T04:33:25.024Z,8.400
2023-07-24T04:34:34.325Z,7.650
2023-07-24T04:35:25.200Z,9.600
2023-07-24T04:36:24.767Z,10.600
2023-07-24T04:37:20.964Z,11.150
2023-07-24T04:38:31.208Z,12.600
2023-07-24T04:39:30.735Z,10.250
2023-07-24T04:40:24.331Z,8.800
2023-07-24T04:41:29.485Z,10.750
2023-07-24T04:42:30.946Z,8.800
2023-07-24T04:43:21.186Z,12.300
2023-07-24T04:44:22.850Z,9.900
2023-07-24T04:45:31.532Z,8.950
2023-07-24T04:46:21.641Z,7.900
2023-07-24T04:47:23.346Z,9.300
2023-07-24T04:48:33.778Z,10.150
2023-07-24T04:49:32.236Z,9.300
2023-07-24T04:50:26.416Z,10.250
2023-07-24T04:51:21.546Z,8.200
2023-07-24T04:52:25.707Z,9.850
2023-07-24T04:53:27.612Z,10.250
2023-07-24T04:54:23.480Z,8.000
2023-07-24T04:55:20.806Z,10.500
2023-07-24T04:56:30.185Z,10.900
2023-07-24T04:57:31.853Z,10.300
2023-07-24T04:58:25.173Z,7.800
2023-07-24T04:59:30.915Z,9.600
2023-07-24T05:00:27.398Z,10.100
2023-07-24T05:01:24.685Z,9.800
2023-07-24T05:02:23.931Z,7.300
2023-07-24T05:03:21.425Z,8.800
2023-07-24T05:04:27.400Z,8.150
2023-07-24T05:05:21.247Z,7.400
2023-07-24T05:06:22.564Z,9.500
2023-07-24T05:07:27.505Z,8.800
2023-07-24T05:08:23.053Z,8.300
2023-07-24T05:09:28.278Z,9.900
2023-07-24T05:10:31.692Z,7.950
2023-07-24T05:11:25.426Z,8.300
2023-07-24T05:12:22.569Z,9.850
2023-07-24T05:13:23.923Z,9.050
2023-07-24T05:14:26.943Z,8.400
2023-07-24T05:15:22.935Z,9.450
2023-07-24T05:16:33.556Z,10.250
2023-07-24T05:17:32.003Z,10.800
2023-07-24T05:18:24.895Z,8.000
2023-07-24T05:19:22.295Z,7.600
2023-07-24T05:20:31.221Z,10.300
2023-07-24T05:21:21.757Z,7.900
2023-07-24T05:22:22.892Z,8.300
2023-07-24T05:23:33.326Z,9.750
2023-07-24T05:24:21.058Z,9.950
2023-07-24T05:25:25.387Z,10.500
2023-07-24T05:26:23.784Z,8.500
2023-07-24T05:27:33.740Z,9.850
2023-07-24T05:28:27.190Z,8.700
2023-07-24T05:29:22.804Z,9.700
2023-07-24T05:30:35.716Z,10.700
2023-07-24T05:31:24.288Z,9.600
2023-07-24T05:32:26.689Z,11.600
2023-07-24T05:33:21.003Z,8.500
2023-07-24T05:34:36.329Z,10.400
2023-07-24T05:35:30.800Z,12.200
2023-07-24T05:36:23.282Z,10.150
2023-07-24T05:37:25.109Z,11.700
2023-07-24T05:38:27.995Z,9.100
2023-07-24T05:39:26.027Z,9.700
2023-07-24T05:40:24.005Z,9.000
2023-07-24T05:41:34.408Z,10.850
2023-07-24T05:42:20.758Z,11.100
2023-07-24T05:43:28.430Z,10.050
2023-07-24T05:44:19.398Z,9.800
2023-07-24T05:45:30.625Z,10.300
2023-07-24T05:46:25.208Z,9.350
2023-07-24T05:47:22.890Z,8.300
2023-07-24T05:48:23.729Z,11.000
2023-07-24T05:49:27.220Z,11.050
2023-07-24T05:50:24.282Z,10.000
2023-07-24T05:51:25.067Z,9.250
2023-07-24T05:52:31.555Z,12.600
2023-07-24T05:53:26.154Z,9.450
2023-07-24T05:54:22.359Z,10.500
2023-07-24T05:55:32.290Z,10.700
2023-07-24T05:56:28.043Z,10.600
2023-07-24T05:57:23.077Z,10.200
2023-07-24T05:58:32.897Z,11.250
2023-07-24T05:59:22.781Z,9.000
2023-07-24T06:00:22.736Z,11.300
2023-07-24T06:01:21.166Z,11.200
2023-07-24T06:02:31.340Z,9.500
2023-07-24T06:03:30.221Z,9.600
2023-07-24T06:04:23.194Z,9.500
2023-07-24T06:05:26.375Z,10.550
2023-07-24T06:06:21.509Z,8.450
2023-07-24T06:07:24.926Z,12.100
2023-07-24T06:08:23.993Z,9.150
2023-07-24T06:09:32.586Z,8.650
2023-07-24T06:10:28.970Z,9.300
2023-07-24T06:11:23.487Z,10.400
2023-07-24T06:12:34.740Z,10.150
2023-07-24T06:13:25.590Z,11.400
2023-07-24T06:14:24.844Z,9.950
2023-07-24T06:15:20.991Z,11.100
2023-07-24T06:16:23.073Z,9.050
2023-07-24T06:17:27.343Z,9.800
2023-07-24T06:18:22.887Z,11.400
2023-07-24T06:19:33.302Z,10.700
2023-07-24T06:20:35.416Z,9.600
2023-07-24T06:21:26.300Z,11.400
2023-07-24T06:22:21.002Z,8.650
2023-07-24T06:23:31.626Z,8.600
2023-07-24T06:24:27.333Z,8.700
2023-07-24T06:25:23.344Z,9.150
2023-07-24T06:26:34.330Z,8.800
2023-07-24T06:27:34.824Z,8.800
2023-07-24T06:28:26.824Z,8.650
2023-07-24T06:29:23.532Z,9.600
2023-07-24T06:30:31.321Z,8.500
2023-07-24T06:31:27.203Z,9.000
2023-07-24T06:32:24.634Z,11.700
2023-07-24T06:33:23.113Z,9.200
2023-07-24T06:34:37.516Z,9.500
2023-07-24T06:35:26.749Z,9.200
2023-07-24T06:36:23.367Z,9.100
2023-07-24T06:37:23.078Z,9.400
2023-07-24T06:38:30.442Z,9.000
2023-07-24T06:39:25.041Z,9.300
2023-07-24T06:40:34.110Z,9.950
2023-07-24T06:41:47.665Z,10.700
2023-07-24T06:42:27.034Z,9.600
2023-07-24T06:43:22.396Z,7.800
2023-07-24T06:44:20.693Z,9.200
2023-07-24T06:45:30.831Z,10.200
2023-07-24T06:46:23.611Z,12.000
2023-07-24T06:47:23.863Z,10.400
2023-07-24T06:48:46.837Z,11.850
2023-07-24T06:49:27.283Z,11.000
2023-07-24T06:50:21.107Z,10.800
2023-07-24T06:51:26.209Z,8.450
2023-07-24T06:52:22.185Z,9.900
2023-07-24T06:53:23.126Z,12.500
2023-07-24T06:54:26.433Z,9.750
2023-07-24T06:55:45.570Z,10.500
2023-07-24T06:56:26.557Z,10.400
2023-07-24T06:57:20.923Z,9.100
2023-07-24T06:58:20.787Z,8.950
2023-07-24T06:59:23.534Z,11.150
2023-07-24T07:00:19.607Z,10.600
2023-07-24T07:01:23.095Z,10.800
2023-07-24T07:02:36.196Z,9.000
2023-07-24T07:03:24.899Z,9.600
2023-07-24T07:04:21.475Z,10.250
2023-07-24T07:05:32.857Z,8.300
2023-07-24T07:06:28.889Z,10.650
2023-07-24T07:07:27.109Z,10.300
2023-07-24T07:08:34.714Z,7.900
2023-07-24T07:09:30.869Z,10.050
2023-07-24T07:10:26.843Z,8.300
2023-07-24T07:11:20.984Z,9.200
2023-07-24T07:12:26.524Z,8.350
2023-07-24T07:13:36.366Z,9.050
2023-07-24T07:14:22.872Z,9.700
2023-07-24T07:15:20.469Z,8.900
2023-07-24T07:16:32.924Z,9.750
2023-07-24T07:17:25.146Z,9.950
2023-07-24T07:18:22.717Z,11.400
2023-07-24T07:19:33.773Z,10.100
2023-07-24T07:20:27.157Z,8.800
2023-07-24T07:21:28.221Z,9.150
2023-07-24T07:22:19.564Z,9.350
2023-07-24T07:23:24.038Z,8.800
2023-07-24T07:24:26.247Z,9.250
2023-07-24T07:25:21.298Z,10.200
2023-07-24T07:26:31.554Z,10.900
2023-07-24T07:27:28.734Z,9.800
2023-07-24T07:28:23.391Z,9.300
2023-07-24T07:29:24.880Z,9.500
2023-07-24T07:30:21.769Z,10.100
2023-07-24T07:31:25.177Z,8.600
2023-07-24T07:32:21.196Z,10.300
2023-07-24T07:33:32.903Z,10.150
2023-07-24T07:34:21.844Z,10.900
2023-07-24T07:35:27.420Z,10.600
2023-07-24T07:36:28.036Z,10.550
2023-07-24T07:37:20.599Z,8.800
2023-07-24T07:38:26.697Z,10.150
2023-07-24T07:39:21.082Z,8.750
2023-07-24T07:40:32.786Z,8.300
2023-07-24T07:41:31.899Z,8.200
2023-07-24T07:42:23.137Z,8.400
2023-07-24T07:43:33.346Z,8.300
2023-07-24T07:44:26.780Z,9.350
2023-07-24T07:45:25.438Z,12.000
2023-07-24T07:46:22.657Z,11.600
2023-07-24T07:47:31.451Z,10.000
2023-07-24T07:48:30.009Z,9.950
2023-07-24T07:49:24.610Z,10.900
2023-07-24T07:50:37.796Z,9.450
2023-07-24T07:51:28.936Z,11.700
2023-07-24T07:52:21.928Z,10.850
2023-07-24T07:53:21.096Z,11.200
2023-07-24T07:54:31.389Z,10.100
2023-07-24T07:55:32.258Z,9.650
2023-07-24T07:56:22.989Z,8.200
2023-07-24T07:57:21.344Z,10.150
2023-07-24T07:58:34.581Z,10.400
2023-07-24T07:59:25.524Z,10.100
2023-07-24T08:00:23.824Z,9.050
2023-07-24T08:01:33.519Z,10.750
2023-07-24T08:02:28.839Z,10.700
2023-07-24T08:03:26.875Z,9.200
2023-07-24T08:04:35.022Z,10.700
2023-07-24T08:05:29.228Z,8.500
2023-07-24T08:06:27.541Z,8.950
2023-07-24T08:07:22.527Z,10.450
2023-07-24T08:08:21.976Z,11.000
2023-07-24T08:09:31.552Z,9.600
2023-07-24T08:10:26.373Z,10.150
2023-07-24T08:11:33.152Z,9.400
2023-07-24T08:12:32.934Z,10.500
2023-07-24T08:13:25.257Z,12.500
2023-07-24T08:14:21.939Z,9.200
2023-07-24T08:15:20.071Z,9.500
2023-07-24T08:16:27.270Z,10.200
2023-07-24T08:17:25.437Z,10.250
2023-07-24T08:18:34.552Z,9.750
2023-07-24T08:19:30.425Z,11.300
2023-07-24T08:20:28.335Z,12.750
2023-07-24T08:21:21.271Z,9.800
2023-07-24T08:22:23.687Z,10.500
2023-07-24T08:23:23.353Z,10.150
2023-07-24T08:24:23.151Z,11.900
2023-07-24T08:25:32.969Z,14.200
2023-07-24T08:26:33.209Z,12.200
2023-07-24T08:27:25.265Z,14.900
2023-07-24T08:28:23.065Z,14.850
2023-07-24T08:29:32.803Z,14.750
2023-07-24T08:30:21.642Z,12.300
2023-07-24T08:31:24.638Z,14.800
2023-07-24T08:32:33.468Z,16.000
2023-07-24T08:33:45.669Z,13.600
2023-07-24T08:34:27.130Z,15.800
2023-07-24T08:35:21.159Z,12.600
2023-07-24T08:36:32.924Z,15.400
2023-07-24T08:37:33.129Z,11.550
2023-07-24T08:38:24.560Z,12.600
2023-07-24T08:39:33.382Z,16.050
2023-07-24T08:40:31.097Z,13.800
2023-07-24T08:41:26.229Z,13.600
2023-07-24T08:42:22.175Z,14.700
2023-07-24T08:43:35.560Z,15.500
2023-07-24T08:44:31.569Z,18.900
2023-07-24T08:45:24.577Z,15.400
2023-07-24T08:46:23.713Z,14.100
2023-07-24T08:47:29.407Z,10.300
2023-07-24T08:48:29.804Z,14.600
2023-07-24T08:49:21.112Z,13.850
2023-07-24T08:50:31.237Z,12.700
2023-07-24T08:51:30.041Z,13.300
2023-07-24T08:52:35.865Z,12.750
2023-07-24T08:53:26.099Z,15.000
2023-07-24T08:54:30.788Z,11.100
2023-07-24T08:55:27.333Z,13.500
2023-07-24T08:56:20.925Z,13.550
2023-07-24T08:57:24.063Z,14.600
2023-07-24T08:58:31.867Z,15.200
2023-07-24T08:59:23.439Z,13.600
2023-07-24T09:00:22.725Z,14.900
2023-07-24T09:01:22.928Z,13.650
2023-07-24T09:02:25.324Z,11.500
2023-07-24T09:03:21.456Z,11.550
2023-07-24T09:04:31.036Z,10.200
2023-07-24T09:05:31.234Z,10.900
2023-07-24T09:06:24.634Z,13.900
2023-07-24T09:07:29.318Z,11.100
2023-07-24T09:08:23.418Z,16.800
2023-07-24T09:09:20.049Z,14.950
2023-07-24T09:10:21.440Z,13.200
2023-07-24T09:11:35.727Z,13.800
2023-07-24T09:12:27.421Z,13.300
2023-07-24T09:13:26.928Z,13.750
2023-07-24T09:14:35.420Z,13.500
2023-07-24T09:15:25.704Z,14.400
2023-07-24T09:16:26.509Z,16.950
2023-07-24T09:17:21.189Z,17.750
2023-07-24T09:18:32.648Z,15.600
2023-07-24T09:19:26.682Z,14.400
2023-07-24T09:20:32.602Z,14.200
2023-07-24T09:21:34.632Z,15.300
2023-07-24T09:22:29.870Z,12.350
2023-07-24T09:23:22.151Z,14.100
2023-07-24T09:24:21.941Z,11.500
2023-07-24T09:25:32.303Z,13.800
2023-07-24T09:26:25.116Z,12.700
2023-07-24T09:27:24.485Z,10.500
2023-07-24T09:28:19.164Z,11.550
2023-07-24T09:29:31.562Z,10.500
2023-07-24T09:30:26.688Z,11.600
2023-07-24T09:31:21.024Z,10.600
2023-07-24T09:32:31.322Z,10.300
2023-07-24T09:33:30.019Z,11.350
2023-07-24T09:34:23.225Z,10.850
2023-07-24T09:35:21.314Z,13.000
2023-07-24T09:36:31.179Z,10.650
2023-07-24T09:37:20.728Z,11.100
2023-07-24T09:38:23.566Z,10.550
2023-07-24T09:39:24.461Z,9.050
2023-07-24T09:40:29.271Z,10.450
2023-07-24T09:41:23.359Z,9.900
2023-07-24T09:42:18.959Z,12.350
2023-07-24T09:43:39.810Z,12.200
2023-07-24T09:44:27.784Z,9.300
2023-07-24T09:45:23.367Z,8.500
2023-07-24T09:46:29.287Z,10.300
2023-07-24T09:47:52.095Z,9.700
2023-07-24T09:48:43.248Z,10.850
2023-07-24T09:49:20.774Z,9.800
2023-07-24T09:50:32.205Z,10.100
2023-07-24T09:51:26.844Z,8.900
2023-07-24T09:52:21.389Z,8.500
2023-07-24T09:53:26.580Z,10.200
2023-07-24T09:54:24.180Z,10.250
2023-07-24T09:55:23.366Z,7.600
2023-07-24T09:56:19.729Z,10.200
2023-07-24T09:57:43.240Z,9.900
2023-07-24T09:58:26.904Z,9.100
2023-07-24T09:59:21.639Z,9.850
2023-07-24T10:00:26.431Z,10.900
2023-07-24T10:01:21.361Z,9.600
2023-07-24T10:02:24.844Z,9.200
2023-07-24T10:03:19.365Z,10.400
2023-07-24T10:04:30.698Z,11.350
2023-07-24T10:05:25.105Z,9.200
2023-07-24T10:06:21.289Z,9.300
2023-07-24T10:07:30.948Z,10.050
2023-07-24T10:08:23.489Z,10.200
2023-07-24T10:09:30.812Z,9.400
2023-07-24T10:10:19.721Z,8.650
2023-07-24T10:11:29.357Z,12.500
2023-07-24T10:12:26.717Z,9.650
2023-07-24T10:13:22.699Z,7.450
2023-07-24T10:14:30.968Z,8.100
2023-07-24T10:15:32.374Z,8.900
2023-07-24T10:16:24.305Z,7.450
2023-07-24T10:17:20.669Z,11.000
2023-07-24T10:18:27.259Z,9.000
2023-07-24T10:19:26.980Z,8.700
2023-07-24T10:20:22.330Z,9.300
2023-07-24T10:21:31.656Z,8.800
2023-07-24T10:22:27.102Z,10.450
2023-07-24T10:23:24.721Z,8.000
2023-07-24T10:24:35.472Z,9.200
2023-07-24T10:25:21.113Z,6.800
2023-07-24T10:26:26.272Z,11.000
2023-07-24T10:27:21.583Z,10.200
2023-07-24T10:28:31.542Z,8.600
2023-07-24T10:29:29.250Z,10.200
2023-07-24T10:30:34.553Z,9.800
2023-07-24T10:31:26.073Z,9.200
2023-07-24T10:32:24.120Z,9.100
2023-07-24T10:33:25.504Z,8.100
2023-07-24T10:34:21.329Z,9.050
2023-07-24T10:35:31.262Z,8.050
2023-07-24T10:36:31.748Z,8.500
2023-07-24T10:37:23.668Z,10.600
2023-07-24T10:38:20.613Z,10.400
2023-07-24T10:39:31.466Z,8.000
2023-07-24T10:40:24.379Z,5.700
2023-07-24T10:41:21.410Z,9.600
2023-07-24T10:42:21.744Z,9.900
2023-07-24T10:43:31.848Z,9.100
2023-07-24T10:44:23.426Z,8.100
2023-07-24T10:45:18.838Z,8.700
2023-07-24T10:46:24.389Z,8.950
2023-07-24T10:47:25.315Z,7.150
2023-07-24T10:48:21.348Z,8.000
2023-07-24T10:49:25.591Z,8.750
2023-07-24T10:50:31.118Z,8.350
2023-07-24T10:51:23.330Z,8.600
2023-07-24T10:52:21.309Z,8.100
2023-07-24T10:53:19.628Z,7.900
2023-07-24T10:54:19.474Z,7.300
2023-07-24T10:55:23.300Z,7.100
2023-07-24T10:56:32.122Z,9.800
2023-07-24T10:57:23.509Z,7.400
2023-07-24T10:58:25.371Z,8.000
2023-07-24T10:59:19.810Z,8.250
2023-07-24T11:00:23.768Z,8.300
2023-07-24T11:01:25.254Z,9.600
2023-07-24T11:02:21.221Z,8.600
2023-07-24T11:03:21.231Z,8.300
2023-07-24T11:04:31.379Z,9.250
2023-07-24T11:05:23.122Z,8.000
2023-07-24T11:06:20.800Z,7.300
2023-07-24T11:07:26.903Z,8.050
2023-07-24T11:08:20.367Z,8.250
2023-07-24T11:09:21.262Z,8.000
2023-07-24T11:10:25.445Z,7.400
2023-07-24T11:11:20.715Z,9.250
2023-07-24T11:12:24.811Z,9.900
2023-07-24T11:13:19.162Z,6.700
2023-07-24T11:14:25.350Z,6.600
2023-07-24T11:15:26.274Z,6.950
2023-07-24T11:16:21.430Z,8.050
2023-07-24T11:17:31.368Z,8.700
2023-07-24T11:18:24.836Z,8.850
2023-07-24T11:19:22.997Z,8.000
2023-07-24T11:20:20.987Z,8.200
2023-07-24T11:21:34.877Z,6.500
2023-07-24T11:22:25.582Z,8.700
2023-07-24T11:23:24.130Z,9.100
2023-07-24T11:24:21.887Z,9.150
2023-07-24T11:25:29.703Z,9.200
2023-07-24T11:26:23.592Z,8.200
2023-07-24T11:27:18.993Z,7.900
2023-07-24T11:28:31.336Z,8.450
2023-07-24T11:29:22.254Z,9.150
2023-07-24T11:30:22.301Z,8.400
2023-07-24T11:31:34.357Z,10.000
2023-07-24T11:32:30.313Z,10.000
2023-07-24T11:33:23.367Z,8.500
2023-07-24T11:34:20.253Z,8.900
2023-07-24T11:35:32.657Z,9.400
2023-07-24T11:36:21.611Z,7.750
2023-07-24T11:37:21.552Z,8.500
2023-07-24T11:38:32.951Z,10.250
2023-07-24T11:39:22.603Z,9.500
2023-07-24T11:40:19.728Z,7.900
2023-07-24T11:41:20.255Z,8.300
2023-07-24T11:42:25.959Z,8.450
2023-07-24T11:43:30.829Z,8.950
2023-07-24T11:44:21.446Z,9.600
2023-07-24T11:45:33.765Z,9.450
2023-07-24T11:46:32.129Z,10.300
2023-07-24T11:47:19.658Z,8.400
2023-07-24T11:48:19.402Z,8.000
2023-07-24T11:49:44.832Z,8.100
2023-07-24T11:50:26.929Z,8.000
2023-07-24T11:51:21.227Z,8.500
2023-07-24T11:52:32.067Z,8.600
2023-07-24T11:53:23.927Z,8.000
2023-07-24T11:54:28.364Z,7.900
2023-07-24T11:55:21.018Z,9.400
2023-07-24T11:56:22.969Z,8.850
2023-07-24T11:57:25.545Z,7.700
2023-07-24T11:58:22.579Z,7.900
2023-07-24T11:59:27.527Z,8.550
2023-07-24T12:00:32.239Z,7.150
2023-07-24T12:01:23.081Z,8.500
2023-07-24T12:02:20.516Z,7.500
2023-07-24T12:03:26.924Z,6.900
2023-07-24T12:04:25.722Z,8.300
2023-07-24T12:05:25.398Z,8.500
2023-07-24T12:06:33.358Z,8.750
2023-07-24T12:07:31.415Z,9.000
2023-07-24T12:08:23.145Z,6.200
2023-07-24T12:09:21.112Z,7.500
2023-07-24T12:10:23.233Z,9.200
2023-07-24T12:11:23.738Z,8.800
2023-07-24T12:12:20.953Z,9.700
2023-07-24T12:13:31.250Z,8.400
2023-07-24T12:14:30.065Z,6.300
2023-07-24T12:15:23.441Z,6.400
2023-07-24T12:16:20.201Z,4.600
2023-07-24T12:17:22.290Z,4.400
2023-07-24T12:18:26.442Z,5.100
2023-07-24T12:19:20.944Z,5.700
2023-07-24T12:20:31.374Z,4.600
2023-07-24T12:21:22.071Z,5.600
2023-07-24T12:22:23.589Z,4.050
2023-07-24T12:23:19.160Z,4.900
2023-07-24T12:24:27.715Z,4.050
2023-07-24T12:25:27.148Z,3.850
2023-07-24T12:26:23.530Z,4.000
2023-07-24T12:27:26.708Z,4.000
2023-07-24T12:28:27.308Z,4.050
2023-07-24T12:29:23.550Z,4.400
2023-07-24T12:30:23.146Z,4.850
2023-07-24T12:31:45.592Z,3.500
2023-07-24T12:32:25.222Z,3.500
2023-07-24T12:33:21.436Z,5.450
2023-07-24T12:34:21.302Z,3.750
2023-07-24T12:35:30.921Z,7.200
2023-07-24T12:36:23.362Z,5.000
2023-07-24T12:37:21.301Z,4.700
2023-07-24T12:38:22.309Z,4.500
2023-07-24T12:39:26.212Z,6.900
2023-07-24T12:40:21.349Z,4.300
2023-07-24T12:41:27.634Z,5.150
2023-07-24T12:42:30.864Z,5.100
2023-07-24T12:43:24.842Z,4.650
2023-07-24T12:44:22.298Z,5.200
2023-07-24T12:45:20.688Z,4.450
2023-07-24T12:46:25.165Z,5.500
2023-07-24T12:47:26.309Z,6.000
2023-07-24T12:48:31.397Z,6.350
2023-07-24T12:49:21.118Z,6.700
2023-07-24T12:50:23.140Z,4.950
2023-07-24T12:51:19.523Z,3.600
2023-07-24T12:52:25.126Z,5.700
2023-07-24T12:53:28.186Z,4.450
2023-07-24T12:54:25.025Z,6.700